Terminal Aerodrome Forecast
Issued by NWS

Current Version | Previous Version | Text Only | Print | Product List | Glossary On
Versions: 1 2 3 4 5 6 7 8 9 10 11 12 13 14 15 16 17 18 19 20 21 22 23 24
000
FTUS42 KEYW 241700
TAFMTH
TAF
KMTH 241732Z 2418/2518 03012G20KT P6SM VCSH SCT020 BKN025 OVC040
     FM250100 01014G19KT P6SM SCT025
     FM251400 01012G17KT P6SM FEW025=

USA.gov is the U.S. government's official web portal to all federal, state and local government web resources and services.